createdAt,value
2019-02-15T00:01:36.150Z,100371.32
2019-02-15T00:04:05.732Z,100371.45
2019-02-15T00:06:35.301Z,100374.05
2019-02-15T00:09:06.115Z,100373.19
2019-02-15T00:11:35.637Z,100379.66
2019-02-15T00:14:05.537Z,100374.65
2019-02-15T00:16:41.082Z,100371.97
2019-02-15T00:19:12.262Z,100369.66
2019-02-15T00:21:42.018Z,100372.94
2019-02-15T00:24:11.622Z,100369.52
2019-02-15T00:26:41.290Z,100367.24
2019-02-15T00:29:10.854Z,100362.64
2019-02-15T00:31:40.640Z,100366.44
2019-02-15T00:34:10.465Z,100361.74
2019-02-15T00:36:40.058Z,100359.37
2019-02-15T00:39:10.176Z,100359.44
2019-02-15T00:41:39.733Z,100352.02
2019-02-15T00:44:09.377Z,100358.48
2019-02-15T00:46:40.979Z,100355.90
2019-02-15T00:49:12.403Z,100350.62
2019-02-15T00:51:43.577Z,100349.54
2019-02-15T00:54:14.793Z,100351.55
2019-02-15T00:56:45.966Z,100347.79
2019-02-15T00:59:17.121Z,100346.28
2019-02-15T01:01:48.320Z,100347.06
2019-02-15T01:04:19.494Z,100346.64
2019-02-15T01:06:50.641Z,100346.06
2019-02-15T01:09:21.814Z,100347.55
2019-02-15T01:11:53.070Z,100336.98
2019-02-15T01:14:22.926Z,100340.68
2019-02-15T01:16:52.544Z,100339.72
2019-02-15T01:19:22.203Z,100337.83
2019-02-15T01:21:51.796Z,100338.55
2019-02-15T01:24:21.796Z,100337.38
2019-02-15T01:27:12.339Z,100331.16
2019-02-15T01:29:43.539Z,100334.45
2019-02-15T01:32:14.732Z,100327.34
2019-02-15T01:34:45.907Z,100329.10
2019-02-15T01:37:18.588Z,100324.41
2019-02-15T01:39:49.842Z,100327.77
2019-02-15T01:42:21.007Z,100324.98
2019-02-15T01:44:52.194Z,100321.44
2019-02-15T01:47:22.048Z,100321.54
2019-02-15T01:49:52.791Z,100319.13
2019-02-15T01:52:22.398Z,100317.73
2019-02-15T01:54:52.062Z,100314.96
2019-02-15T01:57:21.646Z,100309.84
2019-02-15T01:59:51.236Z,100307.56
2019-02-15T02:02:22.418Z,100303.45
2019-02-15T02:04:52.016Z,100310.20
2019-02-15T02:07:21.638Z,100305.73
2019-02-15T02:09:51.380Z,100299.23
2019-02-15T02:12:20.961Z,100296.97
2019-02-15T02:14:50.558Z,100295.59
2019-02-15T02:17:20.131Z,100291.37
2019-02-15T02:19:49.701Z,100295.14
2019-02-15T02:22:19.312Z,100286.66
2019-02-15T02:24:48.886Z,100290.34
2019-02-15T02:27:18.457Z,100286.09
2019-02-15T02:29:48.137Z,100286.72
2019-02-15T02:32:17.746Z,100284.86
2019-02-15T02:34:47.355Z,100283.91
2019-02-15T02:37:16.965Z,100275.97
2019-02-15T02:39:46.525Z,100284.09
2019-02-15T02:42:16.099Z,100281.33
2019-02-15T02:44:45.682Z,100284.02
2019-02-15T02:47:15.276Z,100279.26
2019-02-15T02:49:44.854Z,100279.97
2019-02-15T02:52:14.463Z,100277.09
2019-02-15T02:54:44.030Z,100279.83
2019-02-15T02:57:13.807Z,100281.14
2019-02-15T02:59:43.415Z,100287.94
2019-02-15T03:02:13.002Z,100284.30
2019-02-15T03:04:42.596Z,100282.56
2019-02-15T03:07:12.361Z,100279.95
2019-02-15T03:09:41.952Z,100279.73
2019-02-15T03:12:11.526Z,100279.59
2019-02-15T03:14:41.168Z,100277.22
2019-02-15T03:17:10.691Z,100285.09
2019-02-15T03:19:40.281Z,100279.90
2019-02-15T03:22:09.913Z,100277.80
2019-02-15T03:24:39.475Z,100273.49
2019-02-15T03:27:09.129Z,100271.37
2019-02-15T03:29:38.827Z,100268.92
2019-02-15T03:32:08.556Z,100268.17
2019-02-15T03:34:38.160Z,100271.34
2019-02-15T03:37:09.350Z,100275.13
2019-02-15T03:39:40.521Z,100266.77
2019-02-15T03:42:11.869Z,100263.18
2019-02-15T03:44:41.542Z,100262.52
2019-02-15T03:47:11.915Z,100266.41
2019-02-15T03:49:41.488Z,100263.97
2019-02-15T03:52:11.336Z,100264.77
2019-02-15T03:54:44.309Z,100259.94
2019-02-15T03:57:13.867Z,100259.44
2019-02-15T03:59:43.721Z,100257.67
2019-02-15T04:02:15.061Z,100261.29
2019-02-15T04:04:44.627Z,100261.88
2019-02-15T04:07:14.236Z,100262.03
2019-02-15T04:09:43.977Z,100263.23
2019-02-15T04:12:15.167Z,100262.52
2019-02-15T04:14:44.983Z,100267.96
2019-02-15T04:17:14.586Z,100268.00
2019-02-15T04:19:44.350Z,100270.68
2019-02-15T04:22:13.962Z,100270.85
2019-02-15T04:24:43.539Z,100269.69
2019-02-15T04:27:13.110Z,100269.16
2019-02-15T04:29:42.716Z,100266.58
2019-02-15T04:32:12.290Z,100269.16
2019-02-15T04:34:41.891Z,100271.03
2019-02-15T04:37:11.524Z,100272.78
2019-02-15T04:39:41.132Z,100268.30
2019-02-15T04:42:10.740Z,100267.45
2019-02-15T04:44:42.797Z,100266.86
2019-02-15T04:47:11.730Z,100263.34
2019-02-15T04:49:41.319Z,100260.72
2019-02-15T04:52:10.905Z,100261.92
2019-02-15T04:54:40.516Z,100260.88
2019-02-15T04:57:11.047Z,100259.89
2019-02-15T04:59:40.876Z,100257.27
2019-02-15T05:02:10.626Z,100257.48
2019-02-15T05:04:40.246Z,100258.42
2019-02-15T05:07:10.254Z,100260.73
2019-02-15T05:09:39.865Z,100262.78
2019-02-15T05:12:09.287Z,100262.40
2019-02-15T05:14:38.932Z,100267.92
2019-02-15T05:17:08.506Z,100267.20
2019-02-15T05:19:38.100Z,100262.01
2019-02-15T05:22:07.707Z,100258.55
2019-02-15T05:24:37.348Z,100262.91
2019-02-15T05:27:06.950Z,100258.48
2019-02-15T05:29:36.597Z,100261.75
2019-02-15T05:32:06.183Z,100264.38
2019-02-15T05:34:35.863Z,100262.66
2019-02-15T05:37:05.476Z,100262.55
2019-02-15T05:39:35.014Z,100259.30
2019-02-15T05:42:04.616Z,100258.33
2019-02-15T05:44:34.223Z,100265.89
2019-02-15T05:47:03.824Z,100262.02
2019-02-15T05:49:33.399Z,100264.06
2019-02-15T05:52:03.091Z,100268.36
2019-02-15T05:54:32.722Z,100265.07
2019-02-15T05:57:02.287Z,100269.16
2019-02-15T05:59:33.284Z,100272.55
2019-02-15T06:02:02.890Z,100270.84
2019-02-15T06:04:32.470Z,100273.63
2019-02-15T06:07:02.108Z,100275.78
2019-02-15T06:09:31.686Z,100274.34
2019-02-15T06:12:01.269Z,100278.78
2019-02-15T06:14:30.863Z,100278.55
2019-02-15T06:17:01.852Z,100281.41
2019-02-15T06:19:31.690Z,100286.63
2019-02-15T06:22:01.469Z,100279.93
2019-02-15T06:24:31.061Z,100284.59
2019-02-15T06:27:00.702Z,100289.26
2019-02-15T06:29:30.318Z,100285.31
2019-02-15T06:31:59.925Z,100285.97
2019-02-15T06:34:35.275Z,100293.80
2019-02-15T06:37:04.849Z,100292.43
2019-02-15T06:39:34.479Z,100299.05
2019-02-15T06:42:04.098Z,100297.25
2019-02-15T06:44:33.817Z,100297.42
2019-02-15T06:47:03.381Z,100305.07
2019-02-15T06:49:33.049Z,100300.94
2019-02-15T06:52:03.205Z,100302.55
2019-02-15T06:54:32.796Z,100306.30
2019-02-15T06:57:05.510Z,100307.27
2019-02-15T06:59:36.666Z,100314.69
2019-02-15T07:02:07.821Z,100317.20
2019-02-15T07:04:39.274Z,100316.87
2019-02-15T07:07:08.997Z,100322.02
2019-02-15T07:09:38.597Z,100318.37
2019-02-15T07:12:08.268Z,100321.90
2019-02-15T07:14:37.859Z,100321.97
2019-02-15T07:17:07.441Z,100324.75
2019-02-15T07:19:37.058Z,100312.80
2019-02-15T07:22:06.638Z,100304.81
2019-02-15T07:24:36.191Z,100290.80
2019-02-15T07:27:05.881Z,100281.84
2019-02-15T07:29:35.475Z,100282.06
2019-02-15T07:32:06.591Z,100274.19
2019-02-15T07:34:36.176Z,100271.69
2019-02-15T07:37:05.759Z,100267.27
2019-02-15T07:39:35.372Z,100261.88
2019-02-15T07:42:05.085Z,100254.25
2019-02-15T07:44:34.734Z,100250.17
2019-02-15T07:47:04.418Z,100250.00
2019-02-15T07:49:34.151Z,100249.38
2019-02-15T07:52:03.759Z,100239.20
2019-02-15T07:54:33.348Z,100232.55
2019-02-15T07:57:02.949Z,100226.52
2019-02-15T07:59:32.561Z,100226.78
2019-02-15T08:02:03.045Z,100224.67
2019-02-15T08:04:32.926Z,100217.73
2019-02-15T08:07:05.374Z,100206.81
2019-02-15T08:09:34.954Z,100209.52
2019-02-15T08:12:04.567Z,100207.56
2019-02-15T08:14:34.194Z,100201.85
2019-02-15T08:17:03.754Z,100192.78
2019-02-15T08:19:33.712Z,100191.64
2019-02-15T08:22:03.295Z,100187.43
2019-02-15T08:24:32.873Z,100177.85
2019-02-15T08:27:02.483Z,100178.95
2019-02-15T08:29:32.243Z,100173.41
2019-02-15T08:32:01.822Z,100165.37
2019-02-15T08:34:31.493Z,100164.48
2019-02-15T08:37:01.037Z,100154.73
2019-02-15T08:39:30.654Z,100150.63
2019-02-15T08:42:03.892Z,100158.31
2019-02-15T08:44:31.583Z,100166.09
2019-02-15T08:47:01.191Z,100153.97
2019-02-15T08:49:30.817Z,100146.30
2019-02-15T08:52:00.394Z,100141.18
2019-02-15T08:54:29.995Z,100144.89
2019-02-15T08:56:59.596Z,100139.61
2019-02-15T08:59:29.173Z,100135.99
2019-02-15T09:02:19.687Z,100132.77
2019-02-15T09:04:50.630Z,100137.97
2019-02-15T09:07:20.221Z,100144.60
2019-02-15T09:09:49.822Z,100163.79
2019-02-15T09:12:19.408Z,100166.63
2019-02-15T09:14:48.983Z,100140.98
2019-02-15T09:17:19.289Z,100138.52
2019-02-15T09:19:48.879Z,100121.92
2019-02-15T09:22:19.453Z,100119.14
2019-02-15T09:24:49.048Z,100121.13
2019-02-15T09:27:20.273Z,100112.39
2019-02-15T09:29:49.864Z,100106.14
2019-02-15T09:32:19.481Z,100099.09
2019-02-15T09:34:49.055Z,100090.39
2019-02-15T09:37:18.657Z,100101.03
2019-02-15T09:39:48.286Z,100098.23
2019-02-15T09:42:18.116Z,100100.33
2019-02-15T09:44:47.728Z,100093.83
2019-02-15T09:47:17.312Z,100098.22
2019-02-15T09:49:46.889Z,100114.56
2019-02-15T09:52:16.463Z,100098.25
2019-02-15T09:54:46.079Z,100096.95
2019-02-15T09:57:15.692Z,100091.33
2019-02-15T09:59:45.281Z,100089.84
2019-02-15T10:02:14.913Z,100092.12
2019-02-15T10:04:44.570Z,100089.59
2019-02-15T10:07:14.181Z,100088.68
2019-02-15T10:09:43.764Z,100086.77
2019-02-15T10:12:13.368Z,100085.87
2019-02-15T10:14:48.676Z,100082.88
2019-02-15T10:17:18.746Z,100085.66
2019-02-15T10:19:48.361Z,100079.83
2019-02-15T10:22:17.967Z,100081.92
2019-02-15T10:24:47.589Z,100084.94
2019-02-15T10:27:17.316Z,100080.95
2019-02-15T10:29:46.896Z,100078.43
2019-02-15T10:32:16.605Z,100072.44
2019-02-15T10:34:51.754Z,100073.36
2019-02-15T10:37:21.345Z,100073.80
2019-02-15T10:39:51.176Z,100072.91
2019-02-15T10:42:20.780Z,100069.33
2019-02-15T10:44:50.381Z,100069.41
2019-02-15T10:47:24.958Z,100072.34
2019-02-15T10:49:54.277Z,100082.98
2019-02-15T10:52:23.875Z,100071.88
2019-02-15T10:54:53.554Z,100068.64
2019-02-15T10:57:23.209Z,100061.27
2019-02-15T10:59:52.751Z,100071.15
2019-02-15T11:02:22.415Z,100063.14
2019-02-15T11:04:52.050Z,100064.25
2019-02-15T11:07:21.654Z,100066.64
2019-02-15T11:09:51.255Z,100084.16
2019-02-15T11:12:21.822Z,100068.95
2019-02-15T11:14:51.448Z,100056.03
2019-02-15T11:17:20.879Z,100051.22
2019-02-15T11:19:50.524Z,100043.98
2019-02-15T11:22:22.077Z,100035.11
2019-02-15T11:24:51.668Z,100039.59
2019-02-15T11:27:21.246Z,100041.31
2019-02-15T11:29:50.866Z,100042.30
2019-02-15T11:32:20.447Z,100038.98
2019-02-15T11:34:50.077Z,100038.70
2019-02-15T11:37:19.927Z,100036.42
2019-02-15T11:39:49.555Z,100022.50
2019-02-15T11:42:19.122Z,100042.07
2019-02-15T11:44:48.741Z,100044.49
2019-02-15T11:47:20.012Z,100043.91
2019-02-15T11:49:49.624Z,100035.20
2019-02-15T11:52:19.251Z,100025.08
2019-02-15T11:54:48.811Z,100021.89
2019-02-15T11:57:18.387Z,100017.64
2019-02-15T11:59:48.033Z,100011.21
2019-02-15T12:02:17.641Z,100008.78
2019-02-15T12:04:47.228Z,100019.14
2019-02-15T12:07:16.839Z,99999.70
2019-02-15T12:09:56.074Z,99991.66
2019-02-15T12:12:25.694Z,99979.19
2019-02-15T12:14:55.391Z,99980.58
2019-02-15T12:17:25.427Z,99970.56
2019-02-15T12:19:55.133Z,99972.39
2019-02-15T12:22:27.126Z,99978.80
2019-02-15T12:24:56.717Z,99959.39
2019-02-15T12:27:27.093Z,99961.19
2019-02-15T12:29:56.694Z,99953.48
2019-02-15T12:32:26.732Z,99946.72
2019-02-15T12:34:56.367Z,99946.80
2019-02-15T12:37:25.967Z,99952.09
2019-02-15T12:39:55.538Z,99942.30
2019-02-15T12:42:25.182Z,99945.91
2019-02-15T12:44:54.872Z,99937.99
2019-02-15T12:47:24.461Z,99943.38
2019-02-15T12:49:55.663Z,99931.42
2019-02-15T12:52:28.375Z,99920.00
2019-02-15T12:54:57.974Z,99912.84
2019-02-15T12:57:27.600Z,99921.99
2019-02-15T12:59:57.162Z,99917.91
2019-02-15T13:02:26.753Z,99927.52
2019-02-15T13:04:57.222Z,99926.55
2019-02-15T13:07:26.818Z,99929.27
2019-02-15T13:10:17.298Z,99924.91
2019-02-15T13:12:47.050Z,99922.36
2019-02-15T13:15:16.799Z,99908.68
2019-02-15T13:17:46.711Z,99909.47
2019-02-15T13:20:16.375Z,99896.03
2019-02-15T13:22:45.926Z,99881.08
2019-02-15T13:25:17.038Z,99881.41
2019-02-15T13:27:46.626Z,99883.70
2019-02-15T13:30:17.749Z,99892.95
2019-02-15T13:32:47.622Z,99890.91
2019-02-15T13:35:21.637Z,99884.80
2019-02-15T13:37:51.207Z,99876.05
2019-02-15T13:40:20.826Z,99870.53
2019-02-15T13:42:50.487Z,99870.29
2019-02-15T13:45:20.047Z,99865.75
2019-02-15T13:47:49.653Z,99875.39
2019-02-15T13:50:19.436Z,99862.94
2019-02-15T13:52:49.136Z,99853.81
2019-02-15T13:55:18.737Z,99855.18
2019-02-15T13:57:48.524Z,99860.66
2019-02-15T14:00:18.103Z,99871.13
2019-02-15T14:02:47.728Z,99870.36
2019-02-15T14:05:19.954Z,99854.55
2019-02-15T14:07:49.537Z,99862.94
2019-02-15T14:10:19.150Z,99863.10
2019-02-15T14:12:48.820Z,99865.81
2019-02-15T14:15:19.662Z,99859.77
2019-02-15T14:17:49.244Z,99864.01
2019-02-15T14:20:18.872Z,99860.31
2019-02-15T14:23:07.754Z,99863.16
2019-02-15T14:25:37.335Z,99865.86
2019-02-15T14:28:06.910Z,99855.68
2019-02-15T14:30:36.592Z,99864.14
2019-02-15T14:33:06.125Z,99864.23
2019-02-15T14:35:35.723Z,99862.44
2019-02-15T14:38:05.402Z,99868.87
2019-02-15T14:40:35.033Z,99864.17
2019-02-15T14:43:04.604Z,99863.55
2019-02-15T14:45:34.232Z,99856.27
2019-02-15T14:48:03.786Z,99852.42
2019-02-15T14:50:33.357Z,99858.89
2019-02-15T14:53:11.962Z,99856.14
2019-02-15T14:55:41.557Z,99851.83
2019-02-15T14:58:30.429Z,99845.98
2019-02-15T15:01:00.413Z,99844.70
2019-02-15T15:03:29.997Z,99847.18
2019-02-15T15:06:01.215Z,99851.30
2019-02-15T15:08:30.896Z,99850.09
2019-02-15T15:11:00.485Z,99845.69
2019-02-15T15:13:30.091Z,99847.59
2019-02-15T15:15:59.817Z,99845.22
2019-02-15T15:18:29.421Z,99846.62
2019-02-15T15:20:59.093Z,99847.58
2019-02-15T15:23:28.649Z,99851.52
2019-02-15T15:25:59.901Z,99848.61
2019-02-15T15:28:29.484Z,99845.93
2019-02-15T15:30:59.097Z,99843.34
2019-02-15T15:33:28.688Z,99845.03
2019-02-15T15:35:58.273Z,99847.83
2019-02-15T15:38:27.879Z,99846.31
2019-02-15T15:40:57.446Z,99849.53
2019-02-15T15:43:27.238Z,99839.90
2019-02-15T15:45:56.829Z,99843.95
2019-02-15T15:48:26.412Z,99846.09
2019-02-15T15:50:56.070Z,99841.15
2019-02-15T15:53:25.601Z,99847.14
2019-02-15T15:55:55.211Z,99844.49
2019-02-15T15:58:24.844Z,99848.48
2019-02-15T16:00:54.474Z,99845.16
2019-02-15T16:03:24.083Z,99841.48
2019-02-15T16:05:53.691Z,99848.34
2019-02-15T16:08:23.265Z,99845.73
2019-02-15T16:10:52.860Z,99853.00
2019-02-15T16:13:22.467Z,99852.31
2019-02-15T16:15:52.062Z,99854.64
2019-02-15T16:18:21.733Z,99850.50
2019-02-15T16:20:51.347Z,99852.59
2019-02-15T16:23:20.930Z,99855.02
2019-02-15T16:25:50.486Z,99858.73
2019-02-15T16:28:20.171Z,99848.70
2019-02-15T16:30:49.741Z,99853.16
2019-02-15T16:33:19.346Z,99858.65
2019-02-15T16:35:48.827Z,99864.56
2019-02-15T16:38:18.432Z,99862.06
2019-02-15T16:41:07.344Z,99864.08
2019-02-15T16:43:36.895Z,99863.41
2019-02-15T16:46:06.459Z,99865.59
2019-02-15T16:48:42.131Z,99864.45
2019-02-15T16:51:07.368Z,99866.92
2019-02-15T16:53:36.921Z,99866.48
2019-02-15T16:56:06.532Z,99868.17
2019-02-15T16:58:36.106Z,99871.00
2019-02-15T17:01:05.942Z,99871.03
2019-02-15T17:03:35.526Z,99867.03
2019-02-15T17:06:05.187Z,99862.83
2019-02-15T17:08:37.647Z,99865.19
2019-02-15T17:11:07.544Z,99865.77
2019-02-15T17:13:37.158Z,99867.33
2019-02-15T17:16:06.702Z,99870.35
2019-02-15T17:18:37.498Z,99874.14
2019-02-15T17:21:07.078Z,99873.76
2019-02-15T17:23:36.725Z,99877.58
2019-02-15T17:26:06.300Z,99879.37
2019-02-15T17:28:35.880Z,99878.83
2019-02-15T17:31:05.428Z,99874.62
2019-02-15T17:33:37.395Z,99881.42
2019-02-15T17:36:06.971Z,99882.80
2019-02-15T17:38:36.545Z,99889.83
2019-02-15T17:41:06.139Z,99889.47
2019-02-15T17:43:35.690Z,99885.58
2019-02-15T17:46:05.342Z,99883.41
2019-02-15T17:48:34.984Z,99880.69
2019-02-15T17:51:04.513Z,99884.21
2019-02-15T17:53:34.076Z,99882.07
2019-02-15T17:56:03.758Z,99877.41
2019-02-15T17:58:52.618Z,99791.50
2019-02-15T18:01:22.228Z,99876.64
2019-02-15T18:03:51.784Z,99881.34
2019-02-15T18:06:21.389Z,99876.79
2019-02-15T18:08:51.035Z,99875.98
2019-02-15T18:11:20.605Z,99873.05
2019-02-15T18:13:50.189Z,99877.31
2019-02-15T18:16:21.445Z,99875.03
2019-02-15T18:18:51.988Z,99881.02
2019-02-15T18:21:21.582Z,99878.45
2019-02-15T18:23:51.165Z,99875.94
2019-02-15T18:26:20.912Z,99874.06
2019-02-15T18:29:10.104Z,99872.56
2019-02-15T18:31:39.696Z,99876.00
2019-02-15T18:34:09.282Z,99870.41
2019-02-15T18:36:38.865Z,99861.23
2019-02-15T18:39:09.384Z,99869.55
2019-02-15T18:41:38.948Z,99871.50
2019-02-15T18:44:08.650Z,99875.50
2019-02-15T18:46:38.230Z,99870.67
2019-02-15T18:49:07.795Z,99873.08
2019-02-15T18:51:37.396Z,99871.60
2019-02-15T18:54:06.948Z,99867.41
2019-02-15T18:56:36.499Z,99867.63
2019-02-15T18:59:06.121Z,99862.33
2019-02-15T19:01:35.664Z,99860.48
2019-02-15T19:04:05.328Z,99853.91
2019-02-15T19:06:36.490Z,99860.57
2019-02-15T19:09:06.984Z,99852.77
2019-02-15T19:11:36.568Z,99849.84
2019-02-15T19:14:06.197Z,99853.46
2019-02-15T19:16:35.781Z,99854.67
2019-02-15T19:19:05.733Z,99855.79
2019-02-15T19:21:35.315Z,99852.95
2019-02-15T19:24:06.368Z,99850.01
2019-02-15T19:26:35.935Z,99848.05
2019-02-15T19:29:05.620Z,99849.72
2019-02-15T19:31:35.169Z,99853.05
2019-02-15T19:34:04.744Z,99855.23
2019-02-15T19:36:34.339Z,99850.39
2019-02-15T19:39:05.592Z,99853.70
2019-02-15T19:41:35.145Z,99846.10
2019-02-15T19:44:04.800Z,99851.02
2019-02-15T19:46:34.384Z,99854.34
2019-02-15T19:49:03.942Z,99850.09
2019-02-15T19:51:33.516Z,99851.11
2019-02-15T19:54:03.100Z,99851.32
2019-02-15T19:56:32.664Z,99853.11
2019-02-15T19:59:02.299Z,99855.55
2019-02-15T20:01:31.815Z,99851.84
2019-02-15T20:04:01.410Z,99852.53
2019-02-15T20:06:31.105Z,99852.47
2019-02-15T20:09:00.654Z,99851.44
2019-02-15T20:11:30.243Z,99844.56
2019-02-15T20:14:00.206Z,99846.19
2019-02-15T20:16:29.880Z,99845.48
2019-02-15T20:18:59.451Z,99848.13
2019-02-15T20:21:29.321Z,99843.25
2019-02-15T20:23:58.868Z,99842.34
2019-02-15T20:26:28.447Z,99837.78
2019-02-15T20:28:58.043Z,99839.44
2019-02-15T20:31:27.623Z,99841.18
2019-02-15T20:33:57.216Z,99837.48
2019-02-15T20:36:26.821Z,99841.29
2019-02-15T20:38:56.400Z,99843.11
2019-02-15T20:41:27.450Z,99849.72
2019-02-15T20:43:57.057Z,99846.07
2019-02-15T20:46:26.634Z,99855.63
2019-02-15T20:49:04.339Z,99855.39
2019-02-15T20:51:27.564Z,99859.66
2019-02-15T20:53:57.127Z,99855.36
2019-02-15T20:56:26.725Z,99858.89
2019-02-15T20:58:56.331Z,99858.83
2019-02-15T21:01:25.875Z,99860.14
2019-02-15T21:03:55.458Z,99858.91
2019-02-15T21:06:25.095Z,99856.98
2019-02-15T21:08:54.706Z,99857.47
2019-02-15T21:11:24.280Z,99860.08
2019-02-15T21:13:54.048Z,99856.47
2019-02-15T21:16:23.632Z,99857.15
2019-02-15T21:18:53.188Z,99853.48
2019-02-15T21:21:22.796Z,99851.70
2019-02-15T21:23:52.344Z,99846.30
2019-02-15T21:26:21.938Z,99848.89
2019-02-15T21:28:51.507Z,99849.14
2019-02-15T21:31:21.059Z,99845.98
2019-02-15T21:33:50.645Z,99843.64
2019-02-15T21:36:20.261Z,99839.88
2019-02-15T21:38:49.844Z,99843.77
2019-02-15T21:41:19.392Z,99840.31
2019-02-15T21:43:49.057Z,99839.50
2019-02-15T21:46:18.638Z,99842.40
2019-02-15T21:48:48.197Z,99842.08
2019-02-15T21:51:17.776Z,99839.52
2019-02-15T21:53:47.328Z,99836.19
2019-02-15T21:56:16.922Z,99830.79
2019-02-15T21:58:46.613Z,99834.48
2019-02-15T22:01:16.190Z,99830.52
2019-02-15T22:03:45.765Z,99827.91
2019-02-15T22:06:15.395Z,99825.60
2019-02-15T22:08:44.975Z,99820.49
2019-02-15T22:11:14.540Z,99817.73
2019-02-15T22:13:44.217Z,99820.83
2019-02-15T22:16:13.776Z,99820.81
2019-02-15T22:18:43.399Z,99820.07
2019-02-15T22:21:12.998Z,99819.58
2019-02-15T22:23:44.061Z,99816.77
2019-02-15T22:26:14.409Z,99818.16
2019-02-15T22:28:44.192Z,99819.55
2019-02-15T22:31:13.748Z,99817.03
2019-02-15T22:33:43.332Z,99821.83
2019-02-15T22:36:12.908Z,99829.11
2019-02-15T22:38:42.501Z,99827.14
2019-02-15T22:41:14.891Z,99825.77
2019-02-15T22:43:47.782Z,99821.33
2019-02-15T22:46:17.540Z,99822.31
2019-02-15T22:48:47.091Z,99818.80
2019-02-15T22:51:16.898Z,99820.69
2019-02-15T22:53:46.548Z,99821.86
2019-02-15T22:56:16.125Z,99822.10
2019-02-15T22:58:45.751Z,99818.80
2019-02-15T23:01:17.604Z,99820.39
2019-02-15T23:03:47.311Z,99824.27
2019-02-15T23:06:16.966Z,99823.73
2019-02-15T23:08:46.998Z,99819.36
2019-02-15T23:11:16.828Z,99825.50
2019-02-15T23:13:46.427Z,99831.89
2019-02-15T23:16:15.996Z,99828.27
2019-02-15T23:18:45.553Z,99828.23
2019-02-15T23:21:15.164Z,99827.38
2019-02-15T23:23:44.783Z,99828.63
2019-02-15T23:26:15.603Z,99827.27
2019-02-15T23:28:45.203Z,99824.23
2019-02-15T23:31:14.764Z,99823.47
2019-02-15T23:33:44.351Z,99820.07
2019-02-15T23:36:14.235Z,99826.88
2019-02-15T23:38:43.800Z,99818.98
2019-02-15T23:41:13.382Z,99819.05
2019-02-15T23:43:42.956Z,99823.88
2019-02-15T23:46:12.521Z,99822.85
2019-02-15T23:48:42.105Z,99823.20
2019-02-15T23:51:11.710Z,99825.70
2019-02-15T23:53:41.437Z,99823.13
2019-02-15T23:56:11.024Z,99830.81
2019-02-15T23:58:59.889Z,99826.16
